createdAt,value
2023-05-05T00:00:49.158Z,63
2023-05-05T00:20:46.743Z,63
2023-05-05T00:40:47.705Z,65
2023-05-05T01:00:46.672Z,66
2023-05-05T01:20:53.147Z,67
2023-05-05T01:40:46.775Z,69
2023-05-05T02:00:47.272Z,72
2023-05-05T02:20:45.986Z,70
2023-05-05T02:40:49.172Z,72
2023-05-05T03:00:47.942Z,73
2023-05-05T03:20:47.307Z,74
2023-05-05T03:41:03.624Z,75
2023-05-05T04:00:48.495Z,76
2023-05-05T04:21:15.440Z,77
2023-05-05T04:41:16.527Z,77
2023-05-05T05:01:09.645Z,77
2023-05-05T05:21:08.795Z,77
2023-05-05T05:41:11.040Z,79
2023-05-05T06:01:15.743Z,77
2023-05-05T06:21:13.306Z,76
2023-05-05T06:41:14.739Z,77
2023-05-05T07:01:08.330Z,77
2023-05-05T07:21:14.229Z,70
2023-05-05T07:41:08.996Z,71
2023-05-05T08:01:16.427Z,66
2023-05-05T08:21:16.055Z,65
2023-05-05T08:41:09.313Z,66
2023-05-05T09:01:08.890Z,68
2023-05-05T09:21:11.041Z,64
2023-05-05T09:41:07.561Z,64
2023-05-05T10:01:21.174Z,62
2023-05-05T10:21:14.219Z,62
2023-05-05T10:41:07.649Z,63
2023-05-05T11:01:13.661Z,61
2023-05-05T11:21:10.351Z,61
2023-05-05T11:41:07.863Z,60
2023-05-05T12:01:08.150Z,60
2023-05-05T12:21:07.987Z,58
2023-05-05T12:41:08.686Z,59
2023-05-05T13:01:12.374Z,58
2023-05-05T13:21:10.244Z,57
2023-05-05T13:41:19.227Z,57
2023-05-05T14:01:15.089Z,58
2023-05-05T14:21:06.888Z,60
2023-05-05T14:41:06.994Z,63
2023-05-05T15:01:07.696Z,60
2023-05-05T15:21:16.183Z,56
2023-05-05T15:41:13.414Z,60
2023-05-05T16:01:08.563Z,60
2023-05-05T16:21:14.366Z,60
2023-05-05T16:41:09.790Z,61
2023-05-05T17:01:08.898Z,60
2023-05-05T17:21:09.211Z,60
2023-05-05T17:41:09.770Z,61
2023-05-05T18:01:11.694Z,63
2023-05-05T18:21:11.872Z,64
2023-05-05T18:41:10.194Z,66
2023-05-05T19:00:48.617Z,67
2023-05-05T19:20:47.311Z,68
2023-05-05T19:40:47.666Z,70
2023-05-05T20:00:46.583Z,71
2023-05-05T20:20:48.547Z,72
2023-05-05T20:40:47.457Z,73
2023-05-05T21:00:46.976Z,74
2023-05-05T21:20:47.799Z,74
2023-05-05T21:40:47.617Z,74
2023-05-05T22:01:14.893Z,76
2023-05-05T22:20:54.309Z,76
2023-05-05T22:40:49.851Z,76
2023-05-05T23:00:52.310Z,83
2023-05-05T23:20:48.789Z,83
2023-05-05T23:40:48.826Z,87
